sensor_id;sensor_type;location;lat;lon;timestamp;P1;durP1;ratioP1;P2;durP2;ratioP2
51030;SDS011;37058;41.442;23.240;2023-05-10T00:00:52;6.18;;;4.28;;
51030;SDS011;37058;41.442;23.240;2023-05-10T00:03:18;7.13;;;4.30;;
51030;SDS011;37058;41.442;23.240;2023-05-10T00:05:44;6.20;;;4.03;;
51030;SDS011;37058;41.442;23.240;2023-05-10T00:08:10;5.25;;;3.92;;
51030;SDS011;37058;41.442;23.240;2023-05-10T00:10:36;7.47;;;4.50;;
51030;SDS011;37058;41.442;23.240;2023-05-10T00:13:02;7.20;;;3.97;;
51030;SDS011;37058;41.442;23.240;2023-05-10T00:15:28;5.67;;;4.60;;
51030;SDS011;37058;41.442;23.240;2023-05-10T00:17:55;9.07;;;4.27;;
51030;SDS011;37058;41.442;23.240;2023-05-10T00:20:22;7.50;;;4.87;;
51030;SDS011;37058;41.442;23.240;2023-05-10T00:22:48;6.97;;;4.93;;
51030;SDS011;37058;41.442;23.240;2023-05-10T00:25:13;8.80;;;5.63;;
51030;SDS011;37058;41.442;23.240;2023-05-10T00:27:39;6.77;;;4.00;;
51030;SDS011;37058;41.442;23.240;2023-05-10T00:30:05;5.43;;;3.97;;
51030;SDS011;37058;41.442;23.240;2023-05-10T00:32:32;4.60;;;3.67;;
51030;SDS011;37058;41.442;23.240;2023-05-10T00:34:58;8.23;;;4.10;;
51030;SDS011;37058;41.442;23.240;2023-05-10T00:37:24;5.10;;;3.70;;
51030;SDS011;37058;41.442;23.240;2023-05-10T00:39:50;5.73;;;3.70;;
51030;SDS011;37058;41.442;23.240;2023-05-10T00:42:16;8.00;;;3.93;;
51030;SDS011;37058;41.442;23.240;2023-05-10T00:44:42;5.37;;;4.17;;
51030;SDS011;37058;41.442;23.240;2023-05-10T00:47:07;6.17;;;4.07;;
51030;SDS011;37058;41.442;23.240;2023-05-10T00:49:34;5.43;;;4.10;;
51030;SDS011;37058;41.442;23.240;2023-05-10T00:52:01;5.97;;;4.03;;
51030;SDS011;37058;41.442;23.240;2023-05-10T00:54:28;5.23;;;3.87;;
51030;SDS011;37058;41.442;23.240;2023-05-10T00:56:54;7.13;;;5.17;;
51030;SDS011;37058;41.442;23.240;2023-05-10T00:59:21;4.70;;;3.73;;
51030;SDS011;37058;41.442;23.240;2023-05-10T01:01:47;5.57;;;4.23;;
51030;SDS011;37058;41.442;23.240;2023-05-10T01:04:13;9.27;;;5.40;;
51030;SDS011;37058;41.442;23.240;2023-05-10T01:06:43;6.43;;;4.40;;
51030;SDS011;37058;41.442;23.240;2023-05-10T01:09:09;5.77;;;3.77;;
51030;SDS011;37058;41.442;23.240;2023-05-10T01:11:37;5.83;;;3.47;;
51030;SDS011;37058;41.442;23.240;2023-05-10T01:14:04;5.40;;;3.73;;
51030;SDS011;37058;41.442;23.240;2023-05-10T01:16:32;4.77;;;3.50;;
51030;SDS011;37058;41.442;23.240;2023-05-10T01:19:10;5.67;;;4.00;;
51030;SDS011;37058;41.442;23.240;2023-05-10T01:21:53;4.83;;;3.43;;
51030;SDS011;37058;41.442;23.240;2023-05-10T01:33:11;5.43;;;3.97;;
51030;SDS011;37058;41.442;23.240;2023-05-10T01:38:49;5.07;;;4.10;;
51030;SDS011;37058;41.442;23.240;2023-05-10T01:42:25;5.30;;;3.77;;
51030;SDS011;37058;41.442;23.240;2023-05-10T01:44:37;5.73;;;4.43;;
51030;SDS011;37058;41.442;23.240;2023-05-10T01:49:54;5.87;;;4.43;;
51030;SDS011;37058;41.442;23.240;2023-05-10T01:54:55;6.00;;;4.20;;
51030;SDS011;37058;41.442;23.240;2023-05-10T01:57:34;6.17;;;4.80;;
51030;SDS011;37058;41.442;23.240;2023-05-10T02:00:04;6.47;;;5.20;;
51030;SDS011;37058;41.442;23.240;2023-05-10T02:02:42;7.07;;;4.70;;
51030;SDS011;37058;41.442;23.240;2023-05-10T02:05:13;5.63;;;4.57;;
51030;SDS011;37058;41.442;23.240;2023-05-10T02:07:41;5.87;;;4.37;;
51030;SDS011;37058;41.442;23.240;2023-05-10T02:10:09;6.60;;;4.63;;
51030;SDS011;37058;41.442;23.240;2023-05-10T02:12:37;7.93;;;5.13;;
51030;SDS011;37058;41.442;23.240;2023-05-10T02:15:08;8.30;;;5.33;;
51030;SDS011;37058;41.442;23.240;2023-05-10T02:17:37;10.35;;;4.93;;
51030;SDS011;37058;41.442;23.240;2023-05-10T02:20:05;8.60;;;4.83;;
51030;SDS011;37058;41.442;23.240;2023-05-10T02:22:33;6.37;;;4.50;;
51030;SDS011;37058;41.442;23.240;2023-05-10T02:25:01;6.57;;;4.83;;
51030;SDS011;37058;41.442;23.240;2023-05-10T02:27:28;6.53;;;5.13;;
51030;SDS011;37058;41.442;23.240;2023-05-10T02:29:55;7.13;;;4.20;;
51030;SDS011;37058;41.442;23.240;2023-05-10T02:32:22;9.70;;;5.43;;
51030;SDS011;37058;41.442;23.240;2023-05-10T02:34:51;6.60;;;5.27;;
51030;SDS011;37058;41.442;23.240;2023-05-10T02:37:21;8.43;;;5.53;;
51030;SDS011;37058;41.442;23.240;2023-05-10T02:39:47;7.13;;;4.50;;
51030;SDS011;37058;41.442;23.240;2023-05-10T02:42:19;6.63;;;5.03;;
51030;SDS011;37058;41.442;23.240;2023-05-10T02:44:53;6.27;;;4.50;;
51030;SDS011;37058;41.442;23.240;2023-05-10T02:47:27;9.47;;;7.93;;
51030;SDS011;37058;41.442;23.240;2023-05-10T02:49:54;6.37;;;4.97;;
51030;SDS011;37058;41.442;23.240;2023-05-10T02:52:24;6.57;;;4.87;;
51030;SDS011;37058;41.442;23.240;2023-05-10T02:54:55;7.23;;;5.70;;
51030;SDS011;37058;41.442;23.240;2023-05-10T02:57:26;7.53;;;4.80;;
51030;SDS011;37058;41.442;23.240;2023-05-10T02:59:56;7.77;;;5.17;;
51030;SDS011;37058;41.442;23.240;2023-05-10T03:02:23;6.10;;;5.10;;
51030;SDS011;37058;41.442;23.240;2023-05-10T03:04:49;10.63;;;5.33;;
51030;SDS011;37058;41.442;23.240;2023-05-10T03:07:15;7.37;;;5.00;;
51030;SDS011;37058;41.442;23.240;2023-05-10T03:09:44;7.37;;;5.00;;
51030;SDS011;37058;41.442;23.240;2023-05-10T03:15:07;7.00;;;4.90;;
51030;SDS011;37058;41.442;23.240;2023-05-10T03:20:09;6.90;;;4.83;;
51030;SDS011;37058;41.442;23.240;2023-05-10T03:22:39;7.83;;;6.03;;
51030;SDS011;37058;41.442;23.240;2023-05-10T03:25:10;9.47;;;4.83;;
51030;SDS011;37058;41.442;23.240;2023-05-10T03:27:39;7.23;;;5.00;;
51030;SDS011;37058;41.442;23.240;2023-05-10T03:30:08;8.27;;;4.87;;
51030;SDS011;37058;41.442;23.240;2023-05-10T03:32:37;5.67;;;4.37;;
51030;SDS011;37058;41.442;23.240;2023-05-10T03:35:07;7.23;;;5.43;;
51030;SDS011;37058;41.442;23.240;2023-05-10T03:37:34;6.07;;;4.50;;
51030;SDS011;37058;41.442;23.240;2023-05-10T03:40:01;7.03;;;4.50;;
51030;SDS011;37058;41.442;23.240;2023-05-10T03:42:28;6.40;;;4.73;;
51030;SDS011;37058;41.442;23.240;2023-05-10T03:44:54;7.70;;;4.87;;
51030;SDS011;37058;41.442;23.240;2023-05-10T03:47:20;5.57;;;4.70;;
51030;SDS011;37058;41.442;23.240;2023-05-10T03:49:46;6.47;;;4.77;;
51030;SDS011;37058;41.442;23.240;2023-05-10T03:52:11;4.97;;;3.77;;
51030;SDS011;37058;41.442;23.240;2023-05-10T03:54:37;5.57;;;3.70;;
51030;SDS011;37058;41.442;23.240;2023-05-10T03:57:03;5.70;;;4.63;;
51030;SDS011;37058;41.442;23.240;2023-05-10T03:59:30;4.40;;;3.57;;
51030;SDS011;37058;41.442;23.240;2023-05-10T04:01:56;10.77;;;4.00;;
51030;SDS011;37058;41.442;23.240;2023-05-10T04:04:22;8.23;;;4.53;;
51030;SDS011;37058;41.442;23.240;2023-05-10T04:06:49;4.67;;;4.10;;
51030;SDS011;37058;41.442;23.240;2023-05-10T04:09:15;5.17;;;3.63;;
51030;SDS011;37058;41.442;23.240;2023-05-10T04:11:42;5.00;;;3.90;;
51030;SDS011;37058;41.442;23.240;2023-05-10T04:14:08;5.40;;;3.90;;
51030;SDS011;37058;41.442;23.240;2023-05-10T04:16:34;6.07;;;4.40;;
51030;SDS011;37058;41.442;23.240;2023-05-10T04:19:00;6.47;;;4.17;;
51030;SDS011;37058;41.442;23.240;2023-05-10T04:21:27;4.97;;;3.93;;
51030;SDS011;37058;41.442;23.240;2023-05-10T04:23:53;4.50;;;3.77;;
51030;SDS011;37058;41.442;23.240;2023-05-10T04:26:20;9.77;;;6.37;;
51030;SDS011;37058;41.442;23.240;2023-05-10T04:28:47;8.10;;;5.73;;
51030;SDS011;37058;41.442;23.240;2023-05-10T04:31:13;8.63;;;5.93;;
51030;SDS011;37058;41.442;23.240;2023-05-10T04:33:39;6.77;;;4.67;;
51030;SDS011;37058;41.442;23.240;2023-05-10T04:36:05;7.23;;;5.50;;
51030;SDS011;37058;41.442;23.240;2023-05-10T04:38:32;10.33;;;6.90;;
51030;SDS011;37058;41.442;23.240;2023-05-10T04:41:05;11.10;;;6.83;;
51030;SDS011;37058;41.442;23.240;2023-05-10T04:43:36;9.37;;;7.20;;
51030;SDS011;37058;41.442;23.240;2023-05-10T04:46:03;8.00;;;5.90;;
51030;SDS011;37058;41.442;23.240;2023-05-10T04:48:30;9.30;;;7.13;;
51030;SDS011;37058;41.442;23.240;2023-05-10T04:50:56;8.07;;;6.80;;
51030;SDS011;37058;41.442;23.240;2023-05-10T04:53:22;9.70;;;6.30;;
51030;SDS011;37058;41.442;23.240;2023-05-10T04:55:48;8.73;;;5.37;;
51030;SDS011;37058;41.442;23.240;2023-05-10T04:58:15;8.47;;;6.30;;
51030;SDS011;37058;41.442;23.240;2023-05-10T05:00:41;9.37;;;7.40;;
51030;SDS011;37058;41.442;23.240;2023-05-10T05:03:07;8.30;;;6.27;;
51030;SDS011;37058;41.442;23.240;2023-05-10T05:05:34;8.60;;;6.33;;
51030;SDS011;37058;41.442;23.240;2023-05-10T05:08:00;9.27;;;5.33;;
51030;SDS011;37058;41.442;23.240;2023-05-10T05:10:26;7.57;;;5.17;;
51030;SDS011;37058;41.442;23.240;2023-05-10T05:12:52;7.43;;;5.23;;
51030;SDS011;37058;41.442;23.240;2023-05-10T05:15:18;10.23;;;5.33;;
51030;SDS011;37058;41.442;23.240;2023-05-10T05:17:45;8.00;;;5.90;;
51030;SDS011;37058;41.442;23.240;2023-05-10T05:20:11;6.80;;;5.23;;
51030;SDS011;37058;41.442;23.240;2023-05-10T05:22:38;7.63;;;5.20;;
51030;SDS011;37058;41.442;23.240;2023-05-10T05:25:04;6.10;;;5.10;;
51030;SDS011;37058;41.442;23.240;2023-05-10T05:27:31;7.43;;;5.10;;
51030;SDS011;37058;41.442;23.240;2023-05-10T05:29:57;7.53;;;4.87;;
51030;SDS011;37058;41.442;23.240;2023-05-10T05:32:24;7.53;;;5.13;;
51030;SDS011;37058;41.442;23.240;2023-05-10T05:34:51;8.77;;;6.03;;
51030;SDS011;37058;41.442;23.240;2023-05-10T05:37:17;8.30;;;5.97;;
51030;SDS011;37058;41.442;23.240;2023-05-10T05:39:46;5.10;;;4.32;;
51030;SDS011;37058;41.442;23.240;2023-05-10T05:42:12;5.40;;;3.93;;
51030;SDS011;37058;41.442;23.240;2023-05-10T05:44:39;5.80;;;4.10;;
51030;SDS011;37058;41.442;23.240;2023-05-10T05:47:06;6.67;;;4.47;;
51030;SDS011;37058;41.442;23.240;2023-05-10T05:49:32;7.80;;;5.73;;
51030;SDS011;37058;41.442;23.240;2023-05-10T05:51:59;8.77;;;6.93;;
51030;SDS011;37058;41.442;23.240;2023-05-10T05:54:29;11.73;;;6.90;;
51030;SDS011;37058;41.442;23.240;2023-05-10T05:56:57;12.00;;;7.87;;
51030;SDS011;37058;41.442;23.240;2023-05-10T05:59:24;6.37;;;5.27;;
51030;SDS011;37058;41.442;23.240;2023-05-10T06:01:51;9.00;;;5.97;;
51030;SDS011;37058;41.442;23.240;2023-05-10T06:04:18;6.70;;;5.43;;
51030;SDS011;37058;41.442;23.240;2023-05-10T06:06:44;6.63;;;4.77;;
51030;SDS011;37058;41.442;23.240;2023-05-10T06:09:11;9.30;;;5.83;;
51030;SDS011;37058;41.442;23.240;2023-05-10T06:11:38;5.93;;;3.93;;
51030;SDS011;37058;41.442;23.240;2023-05-10T06:14:04;6.10;;;4.80;;
51030;SDS011;37058;41.442;23.240;2023-05-10T06:16:33;8.67;;;5.77;;
51030;SDS011;37058;41.442;23.240;2023-05-10T06:19:00;7.67;;;4.67;;
51030;SDS011;37058;41.442;23.240;2023-05-10T06:21:26;5.93;;;4.40;;
51030;SDS011;37058;41.442;23.240;2023-05-10T06:23:52;6.07;;;3.97;;
51030;SDS011;37058;41.442;23.240;2023-05-10T06:26:18;7.93;;;5.53;;
51030;SDS011;37058;41.442;23.240;2023-05-10T06:28:46;6.10;;;3.77;;
51030;SDS011;37058;41.442;23.240;2023-05-10T06:31:12;6.07;;;4.80;;
51030;SDS011;37058;41.442;23.240;2023-05-10T06:33:38;6.60;;;4.20;;
51030;SDS011;37058;41.442;23.240;2023-05-10T06:36:04;6.00;;;3.60;;
51030;SDS011;37058;41.442;23.240;2023-05-10T06:38:31;5.95;;;3.47;;
51030;SDS011;37058;41.442;23.240;2023-05-10T06:40:57;5.20;;;3.63;;
51030;SDS011;37058;41.442;23.240;2023-05-10T06:43:23;5.20;;;3.65;;
51030;SDS011;37058;41.442;23.240;2023-05-10T06:45:51;6.43;;;4.07;;
51030;SDS011;37058;41.442;23.240;2023-05-10T06:48:17;4.93;;;3.50;;
51030;SDS011;37058;41.442;23.240;2023-05-10T06:50:43;4.53;;;3.70;;
51030;SDS011;37058;41.442;23.240;2023-05-10T06:53:10;6.60;;;3.47;;
51030;SDS011;37058;41.442;23.240;2023-05-10T06:55:37;4.37;;;3.50;;
51030;SDS011;37058;41.442;23.240;2023-05-10T06:58:03;3.90;;;3.15;;
51030;SDS011;37058;41.442;23.240;2023-05-10T07:00:29;5.83;;;4.03;;
51030;SDS011;37058;41.442;23.240;2023-05-10T07:02:55;4.07;;;2.90;;
51030;SDS011;37058;41.442;23.240;2023-05-10T07:05:21;4.63;;;3.10;;
51030;SDS011;37058;41.442;23.240;2023-05-10T07:07:48;4.97;;;3.30;;
51030;SDS011;37058;41.442;23.240;2023-05-10T07:10:14;4.40;;;3.13;;
51030;SDS011;37058;41.442;23.240;2023-05-10T07:12:40;4.60;;;3.03;;
51030;SDS011;37058;41.442;23.240;2023-05-10T07:15:06;4.25;;;3.20;;
51030;SDS011;37058;41.442;23.240;2023-05-10T07:17:34;4.37;;;3.27;;
51030;SDS011;37058;41.442;23.240;2023-05-10T07:20:00;4.70;;;3.67;;
51030;SDS011;37058;41.442;23.240;2023-05-10T07:22:28;5.20;;;3.40;;
51030;SDS011;37058;41.442;23.240;2023-05-10T07:24:55;5.35;;;3.00;;
51030;SDS011;37058;41.442;23.240;2023-05-10T07:27:21;4.32;;;3.53;;
51030;SDS011;37058;41.442;23.240;2023-05-10T07:29:47;6.25;;;3.85;;
51030;SDS011;37058;41.442;23.240;2023-05-10T07:32:13;7.05;;;3.65;;
51030;SDS011;37058;41.442;23.240;2023-05-10T07:34:39;4.05;;;3.13;;
51030;SDS011;37058;41.442;23.240;2023-05-10T07:37:05;4.32;;;3.13;;
51030;SDS011;37058;41.442;23.240;2023-05-10T07:39:32;5.40;;;3.30;;
51030;SDS011;37058;41.442;23.240;2023-05-10T07:41:59;7.15;;;3.95;;
51030;SDS011;37058;41.442;23.240;2023-05-10T07:44:25;5.93;;;3.38;;
51030;SDS011;37058;41.442;23.240;2023-05-10T07:46:51;3.83;;;3.03;;
51030;SDS011;37058;41.442;23.240;2023-05-10T07:49:17;5.05;;;3.63;;
51030;SDS011;37058;41.442;23.240;2023-05-10T07:51:43;3.35;;;2.75;;
51030;SDS011;37058;41.442;23.240;2023-05-10T07:54:10;4.32;;;2.80;;
51030;SDS011;37058;41.442;23.240;2023-05-10T07:56:36;8.20;;;2.70;;
51030;SDS011;37058;41.442;23.240;2023-05-10T07:59:03;5.70;;;3.42;;
51030;SDS011;37058;41.442;23.240;2023-05-10T08:01:31;3.60;;;3.00;;
51030;SDS011;37058;41.442;23.240;2023-05-10T08:03:59;4.53;;;3.38;;
51030;SDS011;37058;41.442;23.240;2023-05-10T08:06:25;6.68;;;3.83;;
51030;SDS011;37058;41.442;23.240;2023-05-10T08:08:53;4.05;;;3.03;;
51030;SDS011;37058;41.442;23.240;2023-05-10T08:11:20;3.70;;;2.88;;
51030;SDS011;37058;41.442;23.240;2023-05-10T08:13:46;3.13;;;2.42;;
51030;SDS011;37058;41.442;23.240;2023-05-10T08:16:14;6.00;;;2.40;;
51030;SDS011;37058;41.442;23.240;2023-05-10T08:18:40;4.05;;;2.97;;
51030;SDS011;37058;41.442;23.240;2023-05-10T08:21:06;4.45;;;2.88;;
51030;SDS011;37058;41.442;23.240;2023-05-10T08:23:33;3.50;;;2.78;;
51030;SDS011;37058;41.442;23.240;2023-05-10T08:25:59;3.95;;;2.38;;
51030;SDS011;37058;41.442;23.240;2023-05-10T08:28:25;3.38;;;2.67;;
51030;SDS011;37058;41.442;23.240;2023-05-10T08:30:52;4.18;;;2.10;;
51030;SDS011;37058;41.442;23.240;2023-05-10T08:33:18;3.08;;;2.38;;
51030;SDS011;37058;41.442;23.240;2023-05-10T08:35:44;5.65;;;2.80;;
51030;SDS011;37058;41.442;23.240;2023-05-10T08:38:10;3.47;;;2.55;;
51030;SDS011;37058;41.442;23.240;2023-05-10T08:40:37;3.03;;;2.40;;
51030;SDS011;37058;41.442;23.240;2023-05-10T08:43:08;8.38;;;2.45;;
51030;SDS011;37058;41.442;23.240;2023-05-10T08:45:37;4.07;;;2.88;;
51030;SDS011;37058;41.442;23.240;2023-05-10T08:48:06;3.53;;;2.35;;
51030;SDS011;37058;41.442;23.240;2023-05-10T08:50:37;4.65;;;2.33;;
51030;SDS011;37058;41.442;23.240;2023-05-10T08:53:06;4.15;;;2.72;;
51030;SDS011;37058;41.442;23.240;2023-05-10T08:55:38;4.60;;;2.75;;
51030;SDS011;37058;41.442;23.240;2023-05-10T08:58:08;3.85;;;2.30;;
51030;SDS011;37058;41.442;23.240;2023-05-10T09:00:35;4.90;;;2.60;;
51030;SDS011;37058;41.442;23.240;2023-05-10T09:03:03;7.22;;;3.30;;
51030;SDS011;37058;41.442;23.240;2023-05-10T09:05:31;7.38;;;3.15;;
51030;SDS011;37058;41.442;23.240;2023-05-10T09:07:57;4.07;;;2.60;;
51030;SDS011;37058;41.442;23.240;2023-05-10T09:10:25;3.17;;;2.38;;
51030;SDS011;37058;41.442;23.240;2023-05-10T09:12:53;2.53;;;1.90;;
51030;SDS011;37058;41.442;23.240;2023-05-10T09:15:21;6.78;;;2.60;;
51030;SDS011;37058;41.442;23.240;2023-05-10T09:17:48;3.42;;;2.35;;
51030;SDS011;37058;41.442;23.240;2023-05-10T09:20:15;2.83;;;2.17;;
51030;SDS011;37058;41.442;23.240;2023-05-10T09:22:46;4.18;;;2.53;;
51030;SDS011;37058;41.442;23.240;2023-05-10T09:25:14;3.05;;;2.33;;
51030;SDS011;37058;41.442;23.240;2023-05-10T09:27:43;3.72;;;2.42;;
51030;SDS011;37058;41.442;23.240;2023-05-10T09:30:16;3.85;;;2.40;;
51030;SDS011;37058;41.442;23.240;2023-05-10T09:32:54;2.83;;;2.25;;
51030;SDS011;37058;41.442;23.240;2023-05-10T09:35:25;2.80;;;1.98;;
51030;SDS011;37058;41.442;23.240;2023-05-10T09:37:56;2.78;;;1.95;;
51030;SDS011;37058;41.442;23.240;2023-05-10T09:40:26;3.35;;;2.13;;
51030;SDS011;37058;41.442;23.240;2023-05-10T09:43:01;2.25;;;1.85;;
51030;SDS011;37058;41.442;23.240;2023-05-10T09:45:31;2.42;;;1.80;;
51030;SDS011;37058;41.442;23.240;2023-05-10T09:48:00;5.30;;;2.20;;
51030;SDS011;37058;41.442;23.240;2023-05-10T09:50:28;5.07;;;2.33;;
51030;SDS011;37058;41.442;23.240;2023-05-10T09:52:59;2.05;;;1.73;;
51030;SDS011;37058;41.442;23.240;2023-05-10T09:55:44;3.95;;;2.15;;
51030;SDS011;37058;41.442;23.240;2023-05-10T09:58:15;2.30;;;1.50;;
51030;SDS011;37058;41.442;23.240;2023-05-10T10:00:44;6.70;;;1.73;;
51030;SDS011;37058;41.442;23.240;2023-05-10T10:03:17;3.42;;;1.85;;
51030;SDS011;37058;41.442;23.240;2023-05-10T10:05:46;2.60;;;1.48;;
51030;SDS011;37058;41.442;23.240;2023-05-10T10:08:13;2.40;;;1.60;;
51030;SDS011;37058;41.442;23.240;2023-05-10T10:10:41;1.83;;;1.58;;
51030;SDS011;37058;41.442;23.240;2023-05-10T10:13:09;2.05;;;1.40;;
51030;SDS011;37058;41.442;23.240;2023-05-10T10:15:35;2.08;;;1.58;;
51030;SDS011;37058;41.442;23.240;2023-05-10T10:18:02;2.00;;;1.30;;
51030;SDS011;37058;41.442;23.240;2023-05-10T10:20:31;1.42;;;1.23;;
51030;SDS011;37058;41.442;23.240;2023-05-10T10:22:58;4.15;;;1.42;;
51030;SDS011;37058;41.442;23.240;2023-05-10T10:25:24;1.88;;;1.50;;
51030;SDS011;37058;41.442;23.240;2023-05-10T10:30:32;1.80;;;1.55;;
51030;SDS011;37058;41.442;23.240;2023-05-10T10:36:53;3.15;;;1.80;;
51030;SDS011;37058;41.442;23.240;2023-05-10T10:39:20;3.20;;;2.00;;
51030;SDS011;37058;41.442;23.240;2023-05-10T10:41:50;3.33;;;2.15;;
51030;SDS011;37058;41.442;23.240;2023-05-10T10:52:28;2.28;;;1.70;;
51030;SDS011;37058;41.442;23.240;2023-05-10T10:55:07;4.45;;;1.63;;
51030;SDS011;37058;41.442;23.240;2023-05-10T10:57:52;2.05;;;1.50;;
51030;SDS011;37058;41.442;23.240;2023-05-10T11:00:29;2.30;;;1.67;;
51030;SDS011;37058;41.442;23.240;2023-05-10T11:03:10;2.20;;;1.63;;
51030;SDS011;37058;41.442;23.240;2023-05-10T11:05:50;3.65;;;1.95;;
51030;SDS011;37058;41.442;23.240;2023-05-10T11:08:26;5.60;;;2.75;;
51030;SDS011;37058;41.442;23.240;2023-05-10T11:16:16;4.60;;;2.25;;
51030;SDS011;37058;41.442;23.240;2023-05-10T11:18:52;3.15;;;2.03;;
51030;SDS011;37058;41.442;23.240;2023-05-10T11:21:24;3.92;;;2.13;;
51030;SDS011;37058;41.442;23.240;2023-05-10T11:23:52;2.85;;;2.00;;
51030;SDS011;37058;41.442;23.240;2023-05-10T11:26:21;3.20;;;2.00;;
51030;SDS011;37058;41.442;23.240;2023-05-10T11:28:50;5.43;;;1.90;;
51030;SDS011;37058;41.442;23.240;2023-05-10T11:31:23;4.13;;;2.00;;
51030;SDS011;37058;41.442;23.240;2023-05-10T11:33:55;2.55;;;1.73;;
51030;SDS011;37058;41.442;23.240;2023-05-10T11:36:25;2.22;;;1.70;;
51030;SDS011;37058;41.442;23.240;2023-05-10T11:41:22;2.78;;;1.95;;
51030;SDS011;37058;41.442;23.240;2023-05-10T11:43:50;3.83;;;1.95;;
51030;SDS011;37058;41.442;23.240;2023-05-10T11:46:23;4.03;;;1.83;;
51030;SDS011;37058;41.442;23.240;2023-05-10T11:49:01;2.88;;;2.03;;
51030;SDS011;37058;41.442;23.240;2023-05-10T11:51:29;2.78;;;2.17;;
51030;SDS011;37058;41.442;23.240;2023-05-10T11:54:05;3.20;;;1.92;;
51030;SDS011;37058;41.442;23.240;2023-05-10T11:56:34;3.65;;;2.60;;
51030;SDS011;37058;41.442;23.240;2023-05-10T11:59:01;18.58;;;10.43;;
51030;SDS011;37058;41.442;23.240;2023-05-10T12:01:28;6.10;;;3.63;;
51030;SDS011;37058;41.442;23.240;2023-05-10T12:03:55;6.57;;;3.67;;
51030;SDS011;37058;41.442;23.240;2023-05-10T12:06:29;6.55;;;3.65;;
51030;SDS011;37058;41.442;23.240;2023-05-10T12:09:05;3.65;;;2.60;;
51030;SDS011;37058;41.442;23.240;2023-05-10T12:11:35;2.42;;;2.05;;
51030;SDS011;37058;41.442;23.240;2023-05-10T12:14:05;3.50;;;2.30;;
51030;SDS011;37058;41.442;23.240;2023-05-10T12:16:31;6.15;;;3.10;;
51030;SDS011;37058;41.442;23.240;2023-05-10T12:18:59;3.00;;;2.10;;
51030;SDS011;37058;41.442;23.240;2023-05-10T12:21:27;5.25;;;2.13;;
51030;SDS011;37058;41.442;23.240;2023-05-10T12:23:58;2.85;;;2.10;;
51030;SDS011;37058;41.442;23.240;2023-05-10T12:26:27;3.03;;;2.30;;
51030;SDS011;37058;41.442;23.240;2023-05-10T12:28:54;3.03;;;2.00;;
51030;SDS011;37058;41.442;23.240;2023-05-10T12:34:38;2.83;;;2.13;;
51030;SDS011;37058;41.442;23.240;2023-05-10T12:37:04;4.30;;;2.60;;
51030;SDS011;37058;41.442;23.240;2023-05-10T12:42:09;3.63;;;2.27;;
51030;SDS011;37058;41.442;23.240;2023-05-10T12:44:36;2.78;;;2.20;;
51030;SDS011;37058;41.442;23.240;2023-05-10T12:47:02;3.65;;;2.13;;
51030;SDS011;37058;41.442;23.240;2023-05-10T12:49:28;3.42;;;1.88;;
51030;SDS011;37058;41.442;23.240;2023-05-10T12:51:54;3.90;;;1.75;;
51030;SDS011;37058;41.442;23.240;2023-05-10T12:54:20;4.35;;;2.47;;
51030;SDS011;37058;41.442;23.240;2023-05-10T12:56:46;2.53;;;1.92;;
51030;SDS011;37058;41.442;23.240;2023-05-10T12:59:13;4.20;;;2.03;;
51030;SDS011;37058;41.442;23.240;2023-05-10T13:01:39;3.13;;;1.77;;
51030;SDS011;37058;41.442;23.240;2023-05-10T13:04:05;4.07;;;2.28;;
51030;SDS011;37058;41.442;23.240;2023-05-10T13:06:31;2.70;;;1.77;;
51030;SDS011;37058;41.442;23.240;2023-05-10T13:08:57;3.72;;;1.88;;
51030;SDS011;37058;41.442;23.240;2023-05-10T13:11:23;3.85;;;2.17;;
51030;SDS011;37058;41.442;23.240;2023-05-10T13:13:50;2.72;;;2.17;;
51030;SDS011;37058;41.442;23.240;2023-05-10T13:16:17;3.72;;;2.13;;
51030;SDS011;37058;41.442;23.240;2023-05-10T13:18:43;3.60;;;1.80;;
51030;SDS011;37058;41.442;23.240;2023-05-10T13:21:09;4.43;;;2.15;;
51030;SDS011;37058;41.442;23.240;2023-05-10T13:23:36;2.95;;;2.15;;
51030;SDS011;37058;41.442;23.240;2023-05-10T13:26:02;2.67;;;2.03;;
51030;SDS011;37058;41.442;23.240;2023-05-10T13:28:28;2.83;;;1.80;;
51030;SDS011;37058;41.442;23.240;2023-05-10T13:30:55;2.80;;;1.88;;
51030;SDS011;37058;41.442;23.240;2023-05-10T13:33:21;3.33;;;1.70;;
51030;SDS011;37058;41.442;23.240;2023-05-10T13:35:47;3.38;;;2.15;;
51030;SDS011;37058;41.442;23.240;2023-05-10T13:38:13;3.63;;;1.63;;
51030;SDS011;37058;41.442;23.240;2023-05-10T13:40:39;3.13;;;2.03;;
51030;SDS011;37058;41.442;23.240;2023-05-10T13:43:05;4.53;;;2.30;;
51030;SDS011;37058;41.442;23.240;2023-05-10T13:45:32;5.65;;;2.30;;
51030;SDS011;37058;41.442;23.240;2023-05-10T13:48:01;8.02;;;2.03;;
51030;SDS011;37058;41.442;23.240;2023-05-10T13:50:27;4.65;;;2.15;;
51030;SDS011;37058;41.442;23.240;2023-05-10T13:52:53;5.47;;;1.98;;
51030;SDS011;37058;41.442;23.240;2023-05-10T13:59:01;3.60;;;2.00;;
51030;SDS011;37058;41.442;23.240;2023-05-10T14:01:27;3.55;;;2.00;;
51030;SDS011;37058;41.442;23.240;2023-05-10T14:03:53;4.68;;;2.28;;
51030;SDS011;37058;41.442;23.240;2023-05-10T14:06:19;4.72;;;2.03;;
51030;SDS011;37058;41.442;23.240;2023-05-10T14:08:46;8.65;;;2.05;;
51030;SDS011;37058;41.442;23.240;2023-05-10T14:11:12;4.90;;;1.90;;
51030;SDS011;37058;41.442;23.240;2023-05-10T14:13:39;2.90;;;1.77;;
51030;SDS011;37058;41.442;23.240;2023-05-10T14:16:05;2.63;;;1.80;;
51030;SDS011;37058;41.442;23.240;2023-05-10T14:18:32;2.55;;;1.90;;
51030;SDS011;37058;41.442;23.240;2023-05-10T14:20:58;3.47;;;2.03;;
51030;SDS011;37058;41.442;23.240;2023-05-10T14:23:24;5.68;;;2.38;;
51030;SDS011;37058;41.442;23.240;2023-05-10T14:25:51;3.15;;;2.30;;
51030;SDS011;37058;41.442;23.240;2023-05-10T14:28:17;3.50;;;2.38;;
51030;SDS011;37058;41.442;23.240;2023-05-10T14:30:44;3.38;;;1.85;;
51030;SDS011;37058;41.442;23.240;2023-05-10T14:33:11;7.32;;;1.75;;
51030;SDS011;37058;41.442;23.240;2023-05-10T14:35:37;4.53;;;1.80;;
51030;SDS011;37058;41.442;23.240;2023-05-10T14:38:04;3.67;;;2.20;;
51030;SDS011;37058;41.442;23.240;2023-05-10T14:40:30;4.10;;;2.10;;
51030;SDS011;37058;41.442;23.240;2023-05-10T14:42:57;3.05;;;2.10;;
51030;SDS011;37058;41.442;23.240;2023-05-10T14:45:23;6.43;;;2.67;;
51030;SDS011;37058;41.442;23.240;2023-05-10T14:47:49;2.80;;;1.90;;
51030;SDS011;37058;41.442;23.240;2023-05-10T14:50:15;4.63;;;2.55;;
51030;SDS011;37058;41.442;23.240;2023-05-10T14:56:02;3.07;;;2.20;;
51030;SDS011;37058;41.442;23.240;2023-05-10T14:58:28;2.70;;;2.03;;
51030;SDS011;37058;41.442;23.240;2023-05-10T15:00:55;3.22;;;1.90;;
51030;SDS011;37058;41.442;23.240;2023-05-10T15:03:22;2.50;;;1.88;;
51030;SDS011;37058;41.442;23.240;2023-05-10T15:05:48;5.57;;;2.00;;
51030;SDS011;37058;41.442;23.240;2023-05-10T15:08:14;3.38;;;1.88;;
51030;SDS011;37058;41.442;23.240;2023-05-10T15:10:40;5.78;;;2.00;;
51030;SDS011;37058;41.442;23.240;2023-05-10T15:13:06;2.42;;;1.98;;
51030;SDS011;37058;41.442;23.240;2023-05-10T15:15:33;5.38;;;2.33;;
51030;SDS011;37058;41.442;23.240;2023-05-10T15:17:59;5.38;;;2.40;;
51030;SDS011;37058;41.442;23.240;2023-05-10T15:20:25;4.82;;;2.03;;
51030;SDS011;37058;41.442;23.240;2023-05-10T15:22:51;3.05;;;2.50;;
51030;SDS011;37058;41.442;23.240;2023-05-10T15:25:17;8.80;;;4.85;;
51030;SDS011;37058;41.442;23.240;2023-05-10T15:27:43;2.92;;;2.00;;
51030;SDS011;37058;41.442;23.240;2023-05-10T15:30:10;3.85;;;1.95;;
51030;SDS011;37058;41.442;23.240;2023-05-10T15:32:37;3.70;;;2.05;;
51030;SDS011;37058;41.442;23.240;2023-05-10T15:35:05;2.47;;;2.00;;